createdAt,value
2018-09-02T05:42:49.295Z,22.50
2018-09-02T05:45:17.458Z,14.70
2018-09-02T05:47:45.794Z,13.20
2018-09-02T05:50:13.980Z,12.30
2018-09-02T05:52:42.593Z,11.70
2018-09-02T05:55:10.800Z,11.20
2018-09-02T08:51:28.302Z,28.10
2018-09-02T08:53:56.495Z,28.50
2018-09-02T08:56:24.906Z,28.70
2018-09-02T08:58:53.115Z,29.00
2018-09-02T09:01:21.316Z,29.20
2018-09-02T09:03:49.487Z,29.20
2018-09-02T09:06:17.670Z,29.70
2018-09-02T09:08:46.057Z,29.90
2018-09-02T09:11:14.054Z,30.20
2018-09-02T09:13:42.227Z,30.30
2018-09-02T09:16:10.440Z,30.50
2018-09-02T09:18:38.583Z,31.00
2018-09-02T09:21:07.189Z,31.30
2018-09-02T09:23:35.379Z,31.40
2018-09-02T09:26:03.574Z,31.50
2018-09-02T09:28:32.061Z,31.70
2018-09-02T09:31:00.388Z,31.80
2018-09-02T09:33:28.571Z,31.80
2018-09-02T09:35:56.770Z,31.60
2018-09-02T09:38:24.992Z,31.60
2018-09-02T09:40:53.167Z,31.60
2018-09-02T09:43:21.345Z,31.20
2018-09-02T09:45:49.586Z,31.30
2018-09-02T09:48:17.738Z,31.50
2018-09-02T09:50:45.966Z,31.90
2018-09-02T09:53:14.156Z,31.60
2018-09-02T09:55:42.456Z,31.60
2018-09-02T09:58:10.537Z,31.70
2018-09-02T10:00:43.986Z,31.80
2018-09-02T10:03:12.272Z,31.70
2018-09-02T10:05:40.628Z,31.60
2018-09-02T10:08:08.840Z,31.70
2018-09-02T10:10:37.132Z,31.60
2018-09-02T10:13:06.268Z,31.50
2018-09-02T10:15:34.645Z,31.40
2018-09-02T10:18:02.932Z,31.40
2018-09-02T10:20:31.773Z,31.60
2018-09-02T10:23:00.402Z,32.00
2018-09-02T10:25:35.170Z,31.90
2018-09-02T10:28:03.439Z,31.40
2018-09-02T10:30:31.951Z,31.10
2018-09-02T10:33:00.153Z,31.00
2018-09-02T10:35:28.319Z,30.70
2018-09-02T10:37:56.508Z,30.30
2018-09-02T10:40:24.685Z,30.20
2018-09-02T10:42:52.874Z,30.00
2018-09-02T10:45:21.079Z,29.80
2018-09-02T10:47:49.270Z,29.70
2018-09-02T10:50:17.468Z,29.60
2018-09-02T10:52:45.658Z,29.80
2018-09-02T10:55:13.823Z,30.10
2018-09-02T10:57:42.044Z,30.50
2018-09-02T11:00:10.618Z,30.70
2018-09-02T11:02:38.990Z,31.00
2018-09-02T11:05:07.723Z,31.00
2018-09-02T11:07:36.037Z,30.90
2018-09-02T11:10:04.246Z,30.90
2018-09-02T11:12:32.435Z,30.80
2018-09-02T11:15:02.748Z,30.60
2018-09-02T11:17:32.616Z,30.40
2018-09-02T11:20:00.796Z,30.30
2018-09-02T11:22:28.992Z,30.20
2018-09-02T11:24:57.167Z,30.20
2018-09-02T11:27:25.368Z,30.20
2018-09-02T11:29:53.558Z,30.10
2018-09-02T11:32:21.975Z,29.80
2018-09-02T11:34:50.170Z,29.60
2018-09-02T11:37:18.342Z,29.40
2018-09-02T11:39:46.690Z,29.00
2018-09-02T11:42:14.922Z,28.80
2018-09-02T11:44:43.138Z,28.40
2018-09-02T11:47:11.359Z,28.30
2018-09-02T11:49:39.539Z,28.20
2018-09-02T11:52:07.716Z,28.10
2018-09-02T11:54:36.155Z,28.10
2018-09-02T11:57:04.654Z,28.10
2018-09-02T11:59:32.914Z,27.70
2018-09-02T12:02:01.349Z,27.50
2018-09-02T12:04:29.548Z,27.50
2018-09-02T12:06:57.735Z,27.40
2018-09-02T12:09:25.915Z,27.20
2018-09-02T12:11:54.103Z,27.20
2018-09-02T12:14:22.447Z,27.10
2018-09-02T12:16:50.467Z,27.00
2018-09-02T12:19:18.728Z,26.90
2018-09-02T12:21:46.915Z,26.80
2018-09-02T12:24:15.104Z,26.80
2018-09-02T12:26:43.286Z,26.80
2018-09-02T12:29:11.469Z,26.50
2018-09-02T12:31:39.690Z,26.50
2018-09-02T12:34:07.828Z,26.50
2018-09-02T12:36:36.005Z,26.40
2018-09-02T12:39:04.906Z,26.10
2018-09-02T12:41:33.108Z,26.00
2018-09-02T12:44:01.279Z,25.90
2018-09-02T12:46:29.471Z,25.90
2018-09-02T12:48:57.692Z,25.80
2018-09-02T12:51:25.915Z,25.80
2018-09-02T12:53:54.122Z,25.80
2018-09-02T12:56:22.328Z,25.90
2018-09-02T12:58:50.548Z,26.00
2018-09-02T13:01:22.397Z,26.20
2018-09-02T13:03:50.666Z,26.30
2018-09-02T13:06:18.860Z,26.30
2018-09-02T13:08:47.070Z,26.40
2018-09-02T13:11:15.256Z,26.40
2018-09-02T13:13:43.447Z,26.30
2018-09-02T13:16:11.631Z,26.40
2018-09-02T13:18:39.874Z,26.50
2018-09-02T13:21:08.103Z,26.50
2018-09-02T13:23:36.307Z,26.30
2018-09-02T13:26:04.551Z,26.10
2018-09-02T13:28:32.734Z,26.10
2018-09-02T13:31:00.911Z,26.00
2018-09-02T13:33:29.103Z,26.00
2018-09-02T13:35:57.315Z,26.00
2018-09-02T13:38:25.500Z,25.90
2018-09-02T13:40:53.675Z,25.80
2018-09-02T13:43:22.367Z,25.80
2018-09-02T13:45:50.507Z,25.70
2018-09-02T13:48:18.687Z,25.60
2018-09-02T13:50:46.878Z,25.60
2018-09-02T13:53:15.076Z,25.60
2018-09-02T13:55:43.295Z,25.50
2018-09-02T13:58:11.488Z,25.60
2018-09-02T14:00:39.679Z,25.60
2018-09-02T14:03:07.955Z,25.70
2018-09-02T14:05:36.159Z,25.60
2018-09-02T14:08:04.591Z,25.60
2018-09-02T14:10:32.784Z,25.60
2018-09-02T14:13:01.108Z,25.60
2018-09-02T14:15:29.287Z,25.50
2018-09-02T14:17:57.461Z,25.40
2018-09-02T14:20:25.715Z,25.30
2018-09-02T14:22:53.907Z,25.30
2018-09-02T14:25:22.112Z,25.20
2018-09-02T14:27:50.859Z,25.10
2018-09-02T14:30:19.230Z,25.00
2018-09-02T14:32:47.440Z,24.90
2018-09-02T14:35:15.630Z,24.80
2018-09-02T14:37:43.866Z,24.70
2018-09-02T14:40:12.046Z,24.40
2018-09-02T14:42:40.278Z,24.40
2018-09-02T14:45:08.537Z,24.20
2018-09-02T14:47:36.722Z,24.10
2018-09-02T14:50:05.202Z,24.00
2018-09-02T14:52:33.370Z,23.90
2018-09-02T14:55:01.664Z,23.70
2018-09-02T14:57:29.871Z,23.60
2018-09-02T14:59:58.063Z,23.60
2018-09-02T15:02:26.287Z,23.60
2018-09-02T15:04:54.515Z,23.60
2018-09-02T15:07:22.683Z,23.50
2018-09-02T15:09:50.963Z,23.40
2018-09-02T15:12:19.137Z,23.20
2018-09-02T15:14:47.325Z,23.10
2018-09-02T15:17:15.487Z,23.00
2018-09-02T15:19:43.621Z,22.90
2018-09-02T15:22:11.729Z,22.90
2018-09-02T15:24:40.220Z,22.80
2018-09-02T15:27:08.474Z,22.80
2018-09-02T15:29:36.694Z,22.70
2018-09-02T15:32:05.012Z,22.50
2018-09-02T15:34:33.223Z,22.40
2018-09-02T15:37:01.414Z,22.30
2018-09-02T15:39:29.675Z,22.20
2018-09-02T15:41:57.846Z,22.10
2018-09-02T15:44:26.010Z,22.00
2018-09-02T15:46:54.230Z,22.00
2018-09-02T15:49:22.414Z,22.00
2018-09-02T15:51:50.590Z,21.80
2018-09-02T15:54:18.778Z,21.80
2018-09-02T15:56:46.962Z,21.70
2018-09-02T15:59:15.178Z,21.60
2018-09-02T16:01:43.375Z,21.50
2018-09-02T16:04:11.587Z,21.50
2018-09-02T16:06:39.768Z,21.30
2018-09-02T16:09:09.278Z,21.30
2018-09-02T16:11:37.747Z,21.20
2018-09-02T16:14:06.140Z,21.10
2018-09-02T16:16:34.345Z,21.10
2018-09-02T16:19:02.533Z,21.00
2018-09-02T16:21:30.822Z,20.90
2018-09-02T16:23:58.994Z,20.90
2018-09-02T16:26:27.185Z,20.80
2018-09-02T16:28:55.356Z,20.80
2018-09-02T16:31:23.549Z,20.70
2018-09-02T16:33:51.866Z,20.70
2018-09-02T16:36:20.032Z,20.60
2018-09-02T16:38:48.303Z,20.50
2018-09-02T16:41:16.511Z,20.50
2018-09-02T16:43:44.643Z,20.40
2018-09-02T16:46:12.824Z,20.40
2018-09-02T16:48:40.998Z,20.40
2018-09-02T16:51:09.186Z,20.30
2018-09-02T16:53:37.359Z,20.30
2018-09-02T16:56:05.993Z,20.20
2018-09-02T16:58:34.226Z,20.20
2018-09-02T17:01:02.406Z,20.20
2018-09-02T17:03:33.590Z,20.20
2018-09-02T17:06:01.913Z,20.10
2018-09-02T17:08:30.051Z,20.10
2018-09-02T17:10:58.236Z,20.10
2018-09-02T17:13:26.403Z,20.00
2018-09-02T17:15:54.995Z,20.00
2018-09-02T17:18:23.154Z,20.00
2018-09-02T17:20:51.338Z,19.90
2018-09-02T17:23:19.501Z,19.90
2018-09-02T17:25:47.755Z,19.90
2018-09-02T17:28:15.895Z,19.80
2018-09-02T17:30:44.095Z,19.80
2018-09-02T17:33:13.440Z,19.80
2018-09-02T17:35:41.610Z,19.80
2018-09-02T17:38:09.835Z,19.80
2018-09-02T17:40:37.979Z,19.70
2018-09-02T17:43:06.258Z,19.70
2018-09-02T17:45:34.530Z,19.60
2018-09-02T17:48:02.704Z,19.60
2018-09-02T17:50:30.867Z,19.60
2018-09-02T17:52:59.051Z,19.50
2018-09-02T17:55:27.254Z,19.50
2018-09-02T17:57:55.446Z,19.50
2018-09-02T18:00:29.378Z,19.50
2018-09-02T18:02:57.663Z,19.40
2018-09-02T18:05:25.822Z,19.40
2018-09-02T18:07:54.007Z,19.40
2018-09-02T18:10:22.184Z,19.30
2018-09-02T18:12:50.355Z,19.30
2018-09-02T18:15:18.534Z,19.30
2018-09-02T18:17:46.751Z,19.20
2018-09-02T18:20:14.930Z,19.20
2018-09-02T18:22:43.132Z,19.20
2018-09-02T18:25:11.295Z,19.10
2018-09-02T18:27:41.843Z,19.10
2018-09-02T18:30:10.012Z,19.10
2018-09-02T18:32:41.137Z,19.10
2018-09-02T18:35:10.932Z,19.00
2018-09-02T18:37:39.417Z,19.00
2018-09-02T18:40:07.628Z,19.00
2018-09-02T18:42:35.815Z,18.90
2018-09-02T18:45:04.030Z,18.90
2018-09-02T18:47:32.224Z,18.90
2018-09-02T18:50:00.397Z,18.80
2018-09-02T18:52:28.604Z,18.80
2018-09-02T18:54:56.971Z,18.80
2018-09-02T18:57:25.160Z,18.70
2018-09-02T18:59:53.356Z,18.70
2018-09-02T19:02:23.191Z,18.70
2018-09-02T19:04:51.366Z,18.70
2018-09-02T19:07:19.583Z,18.60
2018-09-02T19:09:47.820Z,18.60
2018-09-02T19:12:15.968Z,18.60
2018-09-02T19:14:46.348Z,18.60
2018-09-02T19:17:14.514Z,18.60
2018-09-02T19:19:42.687Z,18.60
2018-09-02T19:22:10.882Z,18.50
2018-09-02T19:24:39.054Z,18.50
2018-09-02T19:27:07.236Z,18.50
2018-09-02T19:29:35.407Z,18.40
2018-09-02T19:32:03.707Z,18.40
2018-09-02T19:34:31.864Z,18.40
2018-09-02T19:37:00.064Z,18.40
2018-09-02T19:39:28.248Z,18.30
2018-09-02T19:41:56.414Z,18.30
2018-09-02T19:44:24.604Z,18.40
2018-09-02T19:46:53.586Z,18.30
2018-09-02T19:49:21.743Z,18.30
2018-09-02T19:51:49.903Z,18.30
2018-09-02T19:54:18.091Z,18.30
2018-09-02T19:56:46.274Z,18.30
2018-09-02T19:59:14.476Z,18.20
2018-09-02T20:01:42.647Z,18.20
2018-09-02T20:04:10.838Z,18.10
2018-09-02T20:06:39.218Z,18.10
2018-09-02T20:09:10.678Z,18.10
2018-09-02T20:11:38.842Z,18.10
2018-09-02T20:14:07.471Z,18.10
2018-09-02T20:16:35.652Z,18.10
2018-09-02T20:19:03.959Z,18.10
2018-09-02T20:21:32.315Z,18.00
2018-09-02T20:24:00.569Z,18.00
2018-09-02T20:26:28.671Z,18.00
2018-09-02T20:28:57.046Z,18.00
2018-09-02T20:31:25.219Z,18.00
2018-09-02T20:33:53.397Z,18.00
2018-09-02T20:36:21.608Z,18.00
2018-09-02T20:38:49.803Z,17.90
2018-09-02T20:41:17.974Z,17.90
2018-09-02T20:43:46.162Z,17.90
2018-09-02T20:46:14.329Z,17.90
2018-09-02T20:48:42.530Z,17.90
2018-09-02T20:51:10.791Z,17.80
2018-09-02T20:53:38.915Z,17.80
2018-09-02T20:56:07.119Z,17.80
2018-09-02T20:58:35.363Z,17.80
2018-09-02T21:01:03.534Z,17.80
2018-09-02T21:03:31.710Z,17.80
2018-09-02T21:05:59.882Z,17.80
2018-09-02T21:08:28.174Z,17.80
2018-09-02T21:10:56.241Z,17.80
2018-09-02T21:13:24.428Z,17.80
2018-09-02T21:15:52.615Z,17.80
2018-09-02T21:18:20.813Z,17.80
2018-09-02T21:20:48.979Z,17.80
2018-09-02T21:23:17.164Z,17.80
2018-09-02T21:25:45.343Z,17.80
2018-09-02T21:28:13.519Z,17.80
2018-09-02T21:30:41.690Z,17.70
2018-09-02T21:33:09.874Z,17.70
2018-09-02T21:35:38.063Z,17.70
2018-09-02T21:38:06.231Z,17.70
2018-09-02T21:40:34.494Z,17.70
2018-09-02T21:43:02.703Z,17.60
2018-09-02T21:45:30.884Z,17.60
2018-09-02T21:47:59.050Z,17.60
2018-09-02T21:50:27.243Z,17.60
2018-09-02T21:52:55.423Z,17.60
2018-09-02T21:55:23.614Z,17.60
2018-09-02T21:57:51.782Z,17.50
2018-09-02T22:00:19.970Z,17.50
2018-09-02T22:02:48.146Z,17.50
2018-09-02T22:05:16.325Z,17.50
2018-09-02T22:07:44.494Z,17.40
2018-09-02T22:10:12.726Z,17.40
2018-09-02T22:12:41.703Z,17.40
2018-09-02T22:15:10.506Z,17.40
2018-09-02T22:17:38.707Z,17.40
2018-09-02T22:20:07.059Z,17.40
2018-09-02T22:22:35.225Z,17.40
2018-09-02T22:25:03.406Z,17.40
2018-09-02T22:27:31.590Z,17.40
2018-09-02T22:29:59.780Z,17.30
2018-09-02T22:32:28.875Z,17.40
2018-09-02T22:34:57.051Z,17.30
2018-09-02T22:37:25.228Z,17.30
2018-09-02T22:39:53.411Z,17.30
2018-09-02T22:42:21.590Z,17.20
2018-09-02T22:44:49.783Z,17.20
2018-09-02T22:47:17.951Z,17.20
2018-09-02T22:49:46.661Z,17.20
2018-09-02T22:52:14.826Z,17.20
2018-09-02T22:54:43.027Z,17.20
2018-09-02T22:57:11.195Z,17.20
2018-09-02T22:59:39.398Z,17.20
2018-09-02T23:02:08.155Z,17.20
2018-09-02T23:04:36.356Z,17.20
2018-09-02T23:07:04.524Z,17.10
2018-09-02T23:09:32.711Z,17.10
2018-09-02T23:12:00.870Z,17.10
2018-09-02T23:14:29.060Z,17.10
2018-09-02T23:16:57.234Z,17.20
2018-09-02T23:19:25.437Z,17.20
2018-09-02T23:21:53.574Z,17.20
2018-09-02T23:24:21.747Z,17.20
2018-09-02T23:26:49.935Z,17.10
2018-09-02T23:29:18.118Z,17.10
2018-09-02T23:31:46.314Z,17.10
2018-09-02T23:34:14.487Z,17.10
2018-09-02T23:36:42.670Z,17.10
2018-09-02T23:39:12.086Z,17.10
2018-09-02T23:41:40.301Z,17.10
2018-09-02T23:44:08.467Z,17.10
2018-09-02T23:46:36.666Z,17.10
2018-09-02T23:49:05.062Z,17.10
2018-09-02T23:51:33.239Z,17.10
2018-09-02T23:54:01.420Z,17.10
2018-09-02T23:56:29.594Z,17.10
2018-09-02T23:58:57.778Z,17.10
